Terminal Aerodrome Forecast
Issued by NWS

Home | Current Version | Previous Version | Text Only | Print | Product List | Glossary On
Versions: 1 2 3 4 5 6 7 8 9 10 11 12 13 14 15 16 17 18 19 20 21 22 23 24 25 26 27 28 29 30 31 32 33 34 35 36 37 38 39 40 41
000
FTUS42 KRAH 212337
TAFINT
TAF
KINT 212337Z 2200/2224 07005KT 3SM -RA BR OVC004
      TEMPO 2200/2203 2SM -SHRA BR BKN004 OVC010
     FM220400 VRB03KT 1/2SM FG OVC002
      TEMPO 2208/2212 1/4SM FG VV001
     FM221800 08005KT 1SM -SHRA BR OVC008=

USA.gov is the U.S. government's official web portal to all federal, state and local government web resources and services.